sensor_id;sensor_type;location;lat;lon;timestamp;pressure;altitude;pressure_sealevel;temperature;humidity
9009;BME280;62813;51.424;6.762;2023-09-18T00:00:34;100377.72;;;21.06;77.45
9009;BME280;62813;51.424;6.762;2023-09-18T00:03:04;100383.06;;;21.06;77.53
9009;BME280;62813;51.424;6.762;2023-09-18T00:05:31;100385.28;;;21.04;77.41
9009;BME280;62813;51.424;6.762;2023-09-18T00:07:58;100384.44;;;21.00;77.44
9009;BME280;62813;51.424;6.762;2023-09-18T00:10:26;100383.19;;;20.97;77.82
9009;BME280;62813;51.424;6.762;2023-09-18T00:12:52;100380.53;;;20.97;77.74
9009;BME280;62813;51.424;6.762;2023-09-18T00:15:19;100375.59;;;20.99;77.56
9009;BME280;62813;51.424;6.762;2023-09-18T00:17:49;100371.38;;;20.98;77.34
9009;BME280;62813;51.424;6.762;2023-09-18T00:20:16;100378.28;;;20.99;77.50
9009;BME280;62813;51.424;6.762;2023-09-18T00:22:44;100370.25;;;20.99;77.14
9009;BME280;62813;51.424;6.762;2023-09-18T00:25:11;100364.13;;;20.99;77.16
9009;BME280;62813;51.424;6.762;2023-09-18T00:27:38;100362.09;;;20.96;77.19
9009;BME280;62813;51.424;6.762;2023-09-18T00:30:05;100358.56;;;20.92;77.52
9009;BME280;62813;51.424;6.762;2023-09-18T00:32:33;100346.81;;;20.96;77.43
9009;BME280;62813;51.424;6.762;2023-09-18T00:34:59;100343.47;;;20.99;77.38
9009;BME280;62813;51.424;6.762;2023-09-18T00:37:26;100338.09;;;20.99;76.85
9009;BME280;62813;51.424;6.762;2023-09-18T00:39:53;100325.03;;;20.98;77.31
9009;BME280;62813;51.424;6.762;2023-09-18T00:42:20;100317.00;;;20.98;77.54
9009;BME280;62813;51.424;6.762;2023-09-18T00:44:49;100316.03;;;20.90;77.63
9009;BME280;62813;51.424;6.762;2023-09-18T00:47:17;100311.88;;;20.93;77.30
9009;BME280;62813;51.424;6.762;2023-09-18T00:49:47;100325.63;;;20.91;77.37
9009;BME280;62813;51.424;6.762;2023-09-18T00:52:15;100318.72;;;20.90;77.53
9009;BME280;62813;51.424;6.762;2023-09-18T00:54:44;100318.25;;;20.88;77.32
9009;BME280;62813;51.424;6.762;2023-09-18T00:57:12;100309.44;;;20.88;77.46
9009;BME280;62813;51.424;6.762;2023-09-18T00:59:39;100306.66;;;20.84;77.48
9009;BME280;62813;51.424;6.762;2023-09-18T01:02:07;100291.72;;;20.83;77.66
9009;BME280;62813;51.424;6.762;2023-09-18T01:04:34;100282.31;;;20.89;77.35
9009;BME280;62813;51.424;6.762;2023-09-18T01:07:01;100286.91;;;20.89;77.11
9009;BME280;62813;51.424;6.762;2023-09-18T01:09:31;100282.78;;;20.91;76.77
9009;BME280;62813;51.424;6.762;2023-09-18T01:15:11;100282.22;;;20.86;77.46
9009;BME280;62813;51.424;6.762;2023-09-18T01:17:39;100283.34;;;20.85;77.57
9009;BME280;62813;51.424;6.762;2023-09-18T01:20:11;100282.81;;;20.79;77.69
9009;BME280;62813;51.424;6.762;2023-09-18T01:22:38;100283.25;;;20.81;77.61
9009;BME280;62813;51.424;6.762;2023-09-18T01:25:06;100282.63;;;20.72;77.24
9009;BME280;62813;51.424;6.762;2023-09-18T01:27:33;100270.44;;;20.74;77.60
9009;BME280;62813;51.424;6.762;2023-09-18T01:30:01;100274.44;;;20.81;77.15
9009;BME280;62813;51.424;6.762;2023-09-18T01:32:30;100268.75;;;20.82;77.29
9009;BME280;62813;51.424;6.762;2023-09-18T01:35:00;100264.16;;;20.83;76.94
9009;BME280;62813;51.424;6.762;2023-09-18T01:37:29;100264.50;;;20.81;76.80
9009;BME280;62813;51.424;6.762;2023-09-18T01:39:56;100261.31;;;20.75;77.25
9009;BME280;62813;51.424;6.762;2023-09-18T01:42:27;100256.47;;;20.81;77.17
9009;BME280;62813;51.424;6.762;2023-09-18T01:44:55;100253.28;;;20.75;77.46
9009;BME280;62813;51.424;6.762;2023-09-18T01:47:22;100258.41;;;20.68;77.45
9009;BME280;62813;51.424;6.762;2023-09-18T01:50:02;100250.72;;;20.67;77.80
9009;BME280;62813;51.424;6.762;2023-09-18T01:52:32;100246.69;;;20.73;77.43
9009;BME280;62813;51.424;6.762;2023-09-18T01:54:58;100246.56;;;20.69;77.32
9009;BME280;62813;51.424;6.762;2023-09-18T02:05:26;100236.44;;;20.63;77.88
9009;BME280;62813;51.424;6.762;2023-09-18T02:07:53;100236.34;;;20.59;78.02
9009;BME280;62813;51.424;6.762;2023-09-18T02:10:20;100225.84;;;20.66;77.78
9009;BME280;62813;51.424;6.762;2023-09-18T02:12:47;100232.41;;;20.69;77.25
9009;BME280;62813;51.424;6.762;2023-09-18T02:15:14;100233.09;;;20.66;77.74
9009;BME280;62813;51.424;6.762;2023-09-18T02:17:43;100241.47;;;20.64;77.75
9009;BME280;62813;51.424;6.762;2023-09-18T02:20:11;100220.38;;;20.63;77.49
9009;BME280;62813;51.424;6.762;2023-09-18T02:22:38;100217.03;;;20.66;77.70
9009;BME280;62813;51.424;6.762;2023-09-18T02:25:08;100213.66;;;20.69;77.57
9009;BME280;62813;51.424;6.762;2023-09-18T02:27:34;100204.50;;;20.70;77.89
9009;BME280;62813;51.424;6.762;2023-09-18T02:30:01;100200.19;;;20.65;77.58
9009;BME280;62813;51.424;6.762;2023-09-18T02:32:28;100195.69;;;20.69;77.87
9009;BME280;62813;51.424;6.762;2023-09-18T02:34:55;100194.59;;;20.70;77.97
9009;BME280;62813;51.424;6.762;2023-09-18T02:37:22;100178.19;;;20.72;77.55
9009;BME280;62813;51.424;6.762;2023-09-18T02:39:49;100168.91;;;20.69;77.65
9009;BME280;62813;51.424;6.762;2023-09-18T02:42:15;100164.94;;;20.63;77.85
9009;BME280;62813;51.424;6.762;2023-09-18T02:44:42;100157.84;;;20.55;78.08
9009;BME280;62813;51.424;6.762;2023-09-18T02:47:09;100149.47;;;20.57;77.56
9009;BME280;62813;51.424;6.762;2023-09-18T02:49:36;100145.88;;;20.65;77.19
9009;BME280;62813;51.424;6.762;2023-09-18T02:52:04;100141.28;;;20.65;77.78
9009;BME280;62813;51.424;6.762;2023-09-18T02:54:31;100140.50;;;20.65;77.48
9009;BME280;62813;51.424;6.762;2023-09-18T02:56:58;100170.44;;;20.55;77.53
9009;BME280;62813;51.424;6.762;2023-09-18T02:59:24;100153.75;;;20.46;77.90
9009;BME280;62813;51.424;6.762;2023-09-18T03:01:51;100147.63;;;20.45;77.97
9009;BME280;62813;51.424;6.762;2023-09-18T03:04:18;100137.69;;;20.46;78.39
9009;BME280;62813;51.424;6.762;2023-09-18T03:06:46;100135.63;;;20.39;77.39
9009;BME280;62813;51.424;6.762;2023-09-18T03:09:13;100130.78;;;20.45;76.66
9009;BME280;62813;51.424;6.762;2023-09-18T03:11:40;100117.69;;;20.55;76.54
9009;BME280;62813;51.424;6.762;2023-09-18T03:14:06;100113.44;;;20.54;75.16
9009;BME280;62813;51.424;6.762;2023-09-18T03:16:33;100108.63;;;20.60;74.33
9009;BME280;62813;51.424;6.762;2023-09-18T03:19:00;100098.84;;;20.67;74.19
9009;BME280;62813;51.424;6.762;2023-09-18T03:21:27;100105.78;;;20.68;73.86
9009;BME280;62813;51.424;6.762;2023-09-18T03:23:54;100102.09;;;20.73;74.04
9009;BME280;62813;51.424;6.762;2023-09-18T03:26:20;100097.25;;;20.78;73.56
9009;BME280;62813;51.424;6.762;2023-09-18T03:28:47;100076.94;;;20.77;73.38
9009;BME280;62813;51.424;6.762;2023-09-18T03:31:14;100087.31;;;20.79;73.48
9009;BME280;62813;51.424;6.762;2023-09-18T03:33:41;100078.94;;;20.81;73.37
9009;BME280;62813;51.424;6.762;2023-09-18T03:36:07;100082.06;;;20.83;73.43
9009;BME280;62813;51.424;6.762;2023-09-18T03:38:34;100091.97;;;20.82;73.31
9009;BME280;62813;51.424;6.762;2023-09-18T03:41:02;100089.97;;;20.79;73.38
9009;BME280;62813;51.424;6.762;2023-09-18T03:43:29;100075.91;;;20.82;73.45
9009;BME280;62813;51.424;6.762;2023-09-18T03:46:03;100067.53;;;20.84;73.63
9009;BME280;62813;51.424;6.762;2023-09-18T03:48:30;100061.47;;;20.87;73.28
9009;BME280;62813;51.424;6.762;2023-09-18T03:51:06;100070.28;;;20.87;73.22
9009;BME280;62813;51.424;6.762;2023-09-18T03:53:33;100056.91;;;20.87;73.12
9009;BME280;62813;51.424;6.762;2023-09-18T03:56:00;100045.75;;;20.85;72.90
9009;BME280;62813;51.424;6.762;2023-09-18T03:58:27;100047.13;;;20.79;73.20
9009;BME280;62813;51.424;6.762;2023-09-18T04:00:55;100030.72;;;20.81;73.66
9009;BME280;62813;51.424;6.762;2023-09-18T04:03:22;100028.13;;;20.84;73.52
9009;BME280;62813;51.424;6.762;2023-09-18T04:05:49;100038.25;;;20.91;73.26
9009;BME280;62813;51.424;6.762;2023-09-18T04:08:16;100035.22;;;20.92;73.34
9009;BME280;62813;51.424;6.762;2023-09-18T04:10:43;100038.66;;;20.93;73.38
9009;BME280;62813;51.424;6.762;2023-09-18T04:13:11;100055.09;;;20.91;73.24
9009;BME280;62813;51.424;6.762;2023-09-18T04:15:38;100058.19;;;20.93;73.26
9009;BME280;62813;51.424;6.762;2023-09-18T04:18:05;100055.09;;;20.91;73.44
9009;BME280;62813;51.424;6.762;2023-09-18T04:20:32;100060.34;;;20.88;73.26
9009;BME280;62813;51.424;6.762;2023-09-18T04:23:23;100064.59;;;20.89;73.39
9009;BME280;62813;51.424;6.762;2023-09-18T04:25:51;100066.38;;;20.85;73.49
9009;BME280;62813;51.424;6.762;2023-09-18T04:28:19;100064.84;;;20.84;73.77
9009;BME280;62813;51.424;6.762;2023-09-18T04:30:46;100064.75;;;20.80;73.35
9009;BME280;62813;51.424;6.762;2023-09-18T04:33:14;100065.53;;;20.81;73.63
9009;BME280;62813;51.424;6.762;2023-09-18T04:35:44;100077.03;;;20.81;73.72
9009;BME280;62813;51.424;6.762;2023-09-18T04:38:11;100093.00;;;20.77;74.08
9009;BME280;62813;51.424;6.762;2023-09-18T04:40:38;100102.53;;;20.75;74.39
9009;BME280;62813;51.424;6.762;2023-09-18T04:43:07;100089.72;;;20.68;74.86
9009;BME280;62813;51.424;6.762;2023-09-18T04:45:34;100075.53;;;20.68;74.70
9009;BME280;62813;51.424;6.762;2023-09-18T04:48:01;100078.31;;;20.71;74.99
9009;BME280;62813;51.424;6.762;2023-09-18T04:50:29;100083.69;;;20.71;75.25
9009;BME280;62813;51.424;6.762;2023-09-18T04:52:57;100077.53;;;20.71;75.02
9009;BME280;62813;51.424;6.762;2023-09-18T04:55:24;100090.16;;;20.70;75.14
9009;BME280;62813;51.424;6.762;2023-09-18T04:57:51;100087.75;;;20.65;75.41
9009;BME280;62813;51.424;6.762;2023-09-18T05:00:17;100090.50;;;20.69;74.90
9009;BME280;62813;51.424;6.762;2023-09-18T05:02:45;100082.38;;;20.65;75.35
9009;BME280;62813;51.424;6.762;2023-09-18T05:05:12;100080.66;;;20.73;75.25
9009;BME280;62813;51.424;6.762;2023-09-18T05:07:41;100083.69;;;20.71;75.23
9009;BME280;62813;51.424;6.762;2023-09-18T05:10:11;100091.97;;;20.66;75.55
9009;BME280;62813;51.424;6.762;2023-09-18T05:12:39;100087.28;;;20.63;75.38
9009;BME280;62813;51.424;6.762;2023-09-18T05:15:07;100087.75;;;20.65;75.48
9009;BME280;62813;51.424;6.762;2023-09-18T05:17:44;100079.94;;;20.60;75.79
9009;BME280;62813;51.424;6.762;2023-09-18T05:20:12;100073.56;;;20.65;75.63
9009;BME280;62813;51.424;6.762;2023-09-18T05:22:40;100067.34;;;20.61;76.07
9009;BME280;62813;51.424;6.762;2023-09-18T05:25:12;100085.41;;;20.64;75.72
9009;BME280;62813;51.424;6.762;2023-09-18T05:27:41;100093.31;;;20.60;76.34
9009;BME280;62813;51.424;6.762;2023-09-18T05:30:15;100101.69;;;20.59;76.24
9009;BME280;62813;51.424;6.762;2023-09-18T05:32:43;100095.81;;;20.53;76.60
9009;BME280;62813;51.424;6.762;2023-09-18T05:35:12;100105.75;;;20.53;76.73
9009;BME280;62813;51.424;6.762;2023-09-18T05:37:41;100103.25;;;20.60;76.37
9009;BME280;62813;51.424;6.762;2023-09-18T05:40:09;100087.56;;;20.58;76.79
9009;BME280;62813;51.424;6.762;2023-09-18T05:42:38;100088.41;;;20.62;76.86
9009;BME280;62813;51.424;6.762;2023-09-18T05:45:05;100080.72;;;20.61;76.90
9009;BME280;62813;51.424;6.762;2023-09-18T05:47:32;100074.69;;;20.64;76.95
9009;BME280;62813;51.424;6.762;2023-09-18T05:50:00;100084.63;;;20.63;76.55
9009;BME280;62813;51.424;6.762;2023-09-18T05:52:27;100096.78;;;20.61;76.85
9009;BME280;62813;51.424;6.762;2023-09-18T05:54:53;100092.47;;;20.56;77.15
9009;BME280;62813;51.424;6.762;2023-09-18T05:57:20;100117.59;;;20.52;77.19
9009;BME280;62813;51.424;6.762;2023-09-18T05:59:47;100127.00;;;20.61;77.31
9009;BME280;62813;51.424;6.762;2023-09-18T06:02:14;100128.56;;;20.62;77.20
9009;BME280;62813;51.424;6.762;2023-09-18T06:04:46;100123.56;;;20.61;77.02
9009;BME280;62813;51.424;6.762;2023-09-18T06:07:15;100123.66;;;20.64;76.79
9009;BME280;62813;51.424;6.762;2023-09-18T06:09:41;100111.84;;;20.65;76.89
9009;BME280;62813;51.424;6.762;2023-09-18T06:12:08;100108.72;;;20.63;76.46
9009;BME280;62813;51.424;6.762;2023-09-18T06:14:36;100124.53;;;20.68;76.45
9009;BME280;62813;51.424;6.762;2023-09-18T06:17:05;100115.03;;;20.71;75.94
9009;BME280;62813;51.424;6.762;2023-09-18T06:19:32;100111.66;;;20.74;75.79
9009;BME280;62813;51.424;6.762;2023-09-18T06:22:00;100111.56;;;20.70;76.13
9009;BME280;62813;51.424;6.762;2023-09-18T06:24:27;100121.34;;;20.78;75.43
9009;BME280;62813;51.424;6.762;2023-09-18T06:26:54;100127.47;;;20.79;75.79
9009;BME280;62813;51.424;6.762;2023-09-18T06:29:21;100131.19;;;20.74;75.86
9009;BME280;62813;51.424;6.762;2023-09-18T06:31:49;100127.31;;;20.72;75.61
9009;BME280;62813;51.424;6.762;2023-09-18T06:34:16;100123.94;;;20.75;75.07
9009;BME280;62813;51.424;6.762;2023-09-18T06:36:46;100126.25;;;20.76;74.92
9009;BME280;62813;51.424;6.762;2023-09-18T06:39:13;100119.00;;;20.77;74.83
9009;BME280;62813;51.424;6.762;2023-09-18T06:41:40;100124.13;;;20.82;74.53
9009;BME280;62813;51.424;6.762;2023-09-18T06:44:07;100138.97;;;20.80;74.48
9009;BME280;62813;51.424;6.762;2023-09-18T06:46:33;100146.66;;;20.81;74.40
9009;BME280;62813;51.424;6.762;2023-09-18T06:49:00;100143.53;;;20.79;74.71
9009;BME280;62813;51.424;6.762;2023-09-18T06:51:27;100133.72;;;20.83;74.19
9009;BME280;62813;51.424;6.762;2023-09-18T06:54:09;100145.53;;;20.82;73.70
9009;BME280;62813;51.424;6.762;2023-09-18T06:56:36;100145.22;;;20.84;74.06
9009;BME280;62813;51.424;6.762;2023-09-18T06:59:02;100148.63;;;20.84;73.93
9009;BME280;62813;51.424;6.762;2023-09-18T07:01:29;100156.25;;;20.82;73.94
9009;BME280;62813;51.424;6.762;2023-09-18T07:03:58;100158.16;;;20.82;73.97
9009;BME280;62813;51.424;6.762;2023-09-18T07:06:27;100154.59;;;20.77;73.55
9009;BME280;62813;51.424;6.762;2023-09-18T07:08:54;100172.06;;;20.87;73.74
9009;BME280;62813;51.424;6.762;2023-09-18T07:11:22;100162.28;;;20.79;73.64
9009;BME280;62813;51.424;6.762;2023-09-18T07:13:51;100173.09;;;20.83;73.65
9009;BME280;62813;51.424;6.762;2023-09-18T07:16:18;100171.22;;;20.83;73.53
9009;BME280;62813;51.424;6.762;2023-09-18T07:18:45;100168.09;;;20.81;73.85
9009;BME280;62813;51.424;6.762;2023-09-18T07:21:12;100163.19;;;20.83;73.59
9009;BME280;62813;51.424;6.762;2023-09-18T07:23:40;100172.41;;;20.86;74.31
9009;BME280;62813;51.424;6.762;2023-09-18T07:26:07;100172.06;;;20.87;73.68
9009;BME280;62813;51.424;6.762;2023-09-18T07:28:34;100177.19;;;20.92;73.57
9009;BME280;62813;51.424;6.762;2023-09-18T07:31:06;100170.94;;;20.88;73.45
9009;BME280;62813;51.424;6.762;2023-09-18T07:33:33;100188.41;;;20.82;73.21
9009;BME280;62813;51.424;6.762;2023-09-18T07:36:00;100189.69;;;20.88;73.45
9009;BME280;62813;51.424;6.762;2023-09-18T07:38:27;100198.06;;;20.87;73.22
9009;BME280;62813;51.424;6.762;2023-09-18T07:40:54;100184.69;;;20.87;73.03
9009;BME280;62813;51.424;6.762;2023-09-18T07:43:24;100201.88;;;20.86;73.03
9009;BME280;62813;51.424;6.762;2023-09-18T07:45:52;100190.38;;;20.85;73.12
9009;BME280;62813;51.424;6.762;2023-09-18T07:48:21;100178.31;;;20.91;72.88
9009;BME280;62813;51.424;6.762;2023-09-18T07:50:48;100189.34;;;20.90;73.04
9009;BME280;62813;51.424;6.762;2023-09-18T07:53:17;100201.09;;;20.85;72.61
9009;BME280;62813;51.424;6.762;2023-09-18T07:55:44;100186.75;;;20.93;72.50
9009;BME280;62813;51.424;6.762;2023-09-18T07:58:11;100209.66;;;20.91;72.20
9009;BME280;62813;51.424;6.762;2023-09-18T08:00:38;100205.50;;;20.93;72.49
9009;BME280;62813;51.424;6.762;2023-09-18T08:03:05;100206.13;;;21.02;72.34
9009;BME280;62813;51.424;6.762;2023-09-18T08:05:32;100221.78;;;21.00;71.59
9009;BME280;62813;51.424;6.762;2023-09-18T08:07:59;100228.25;;;20.99;71.50
9009;BME280;62813;51.424;6.762;2023-09-18T08:10:27;100207.69;;;21.03;71.06
9009;BME280;62813;51.424;6.762;2023-09-18T08:12:53;100194.47;;;21.10;70.89
9009;BME280;62813;51.424;6.762;2023-09-18T08:15:20;100203.44;;;21.02;70.62
9009;BME280;62813;51.424;6.762;2023-09-18T08:17:48;100199.13;;;20.98;70.88
9009;BME280;62813;51.424;6.762;2023-09-18T08:20:16;100195.78;;;21.01;70.60
9009;BME280;62813;51.424;6.762;2023-09-18T08:22:43;100220.91;;;20.96;71.12
9009;BME280;62813;51.424;6.762;2023-09-18T08:25:11;100215.81;;;21.07;70.99
9009;BME280;62813;51.424;6.762;2023-09-18T08:27:42;100239.34;;;21.13;70.84
9009;BME280;62813;51.424;6.762;2023-09-18T08:30:12;100243.06;;;21.09;70.89
9009;BME280;62813;51.424;6.762;2023-09-18T08:32:41;100230.50;;;21.25;70.18
9009;BME280;62813;51.424;6.762;2023-09-18T08:35:09;100239.72;;;21.28;70.55
9009;BME280;62813;51.424;6.762;2023-09-18T08:37:36;100239.31;;;21.26;70.20
9009;BME280;62813;51.424;6.762;2023-09-18T08:40:03;100219.56;;;21.18;70.27
9009;BME280;62813;51.424;6.762;2023-09-18T08:42:47;100234.53;;;21.19;70.08
9009;BME280;62813;51.424;6.762;2023-09-18T08:48:03;100228.03;;;21.20;70.16
9009;BME280;62813;51.424;6.762;2023-09-18T08:50:32;100243.59;;;21.14;70.07
9009;BME280;62813;51.424;6.762;2023-09-18T08:52:59;100226.38;;;21.15;69.76
9009;BME280;62813;51.424;6.762;2023-09-18T08:55:33;100218.69;;;21.14;69.35
9009;BME280;62813;51.424;6.762;2023-09-18T08:58:00;100239.69;;;21.12;69.21
9009;BME280;62813;51.424;6.762;2023-09-18T09:00:27;100228.81;;;21.21;69.70
9009;BME280;62813;51.424;6.762;2023-09-18T09:02:54;100237.66;;;21.21;69.64
9009;BME280;62813;51.424;6.762;2023-09-18T09:05:22;100263.84;;;21.28;69.54
9009;BME280;62813;51.424;6.762;2023-09-18T09:07:50;100240.09;;;21.26;69.14
9009;BME280;62813;51.424;6.762;2023-09-18T09:10:17;100256.75;;;21.20;69.11
9009;BME280;62813;51.424;6.762;2023-09-18T09:12:58;100242.06;;;21.29;69.08
9009;BME280;62813;51.424;6.762;2023-09-18T09:15:32;100241.22;;;21.41;68.98
9009;BME280;62813;51.424;6.762;2023-09-18T09:18:06;100224.09;;;21.30;67.92
9009;BME280;62813;51.424;6.762;2023-09-18T09:20:35;100217.88;;;21.41;67.69
9009;BME280;62813;51.424;6.762;2023-09-18T09:23:04;100223.50;;;21.52;68.47
9009;BME280;62813;51.424;6.762;2023-09-18T09:25:32;100214.91;;;21.62;68.53
9009;BME280;62813;51.424;6.762;2023-09-18T09:28:04;100229.34;;;21.73;67.93
9009;BME280;62813;51.424;6.762;2023-09-18T09:30:33;100219.41;;;21.74;68.59
9009;BME280;62813;51.424;6.762;2023-09-18T09:33:00;100216.81;;;21.77;67.84
9009;BME280;62813;51.424;6.762;2023-09-18T09:35:33;100221.22;;;21.70;67.55
9009;BME280;62813;51.424;6.762;2023-09-18T09:38:12;100225.72;;;21.66;67.11
9009;BME280;62813;51.424;6.762;2023-09-18T09:40:43;100235.00;;;21.68;66.73
9009;BME280;62813;51.424;6.762;2023-09-18T09:43:13;100237.06;;;21.59;66.86
9009;BME280;62813;51.424;6.762;2023-09-18T09:45:42;100242.78;;;21.58;66.50
9009;BME280;62813;51.424;6.762;2023-09-18T09:48:08;100253.00;;;21.52;66.82
9009;BME280;62813;51.424;6.762;2023-09-18T09:50:47;100250.38;;;21.56;66.67
9009;BME280;62813;51.424;6.762;2023-09-18T09:53:15;100252.28;;;21.39;66.71
9009;BME280;62813;51.424;6.762;2023-09-18T09:55:42;100268.09;;;21.44;66.73
9009;BME280;62813;51.424;6.762;2023-09-18T09:58:10;100267.69;;;21.42;66.84
9009;BME280;62813;51.424;6.762;2023-09-18T10:00:48;100248.03;;;21.54;66.56
9009;BME280;62813;51.424;6.762;2023-09-18T10:03:18;100240.16;;;21.61;66.74
9009;BME280;62813;51.424;6.762;2023-09-18T10:05:48;100237.31;;;21.54;66.50
9009;BME280;62813;51.424;6.762;2023-09-18T10:08:19;100256.78;;;21.51;66.62
9009;BME280;62813;51.424;6.762;2023-09-18T10:10:51;100260.50;;;21.62;66.56
9009;BME280;62813;51.424;6.762;2023-09-18T10:13:23;100271.31;;;21.66;66.60
9009;BME280;62813;51.424;6.762;2023-09-18T10:15:54;100252.09;;;21.64;66.46
9009;BME280;62813;51.424;6.762;2023-09-18T10:18:39;100248.41;;;21.68;66.48
9009;BME280;62813;51.424;6.762;2023-09-18T10:21:20;100261.53;;;21.73;65.82
9009;BME280;62813;51.424;6.762;2023-09-18T10:24:14;100233.84;;;21.85;66.04
9009;BME280;62813;51.424;6.762;2023-09-18T10:26:51;100250.78;;;22.05;64.75
9009;BME280;62813;51.424;6.762;2023-09-18T10:29:23;100239.25;;;22.20;64.83
9009;BME280;62813;51.424;6.762;2023-09-18T10:31:53;100234.81;;;22.27;64.65
9009;BME280;62813;51.424;6.762;2023-09-18T10:34:23;100233.50;;;22.21;64.50
9009;BME280;62813;51.424;6.762;2023-09-18T10:36:52;100238.28;;;22.28;64.33
9009;BME280;62813;51.424;6.762;2023-09-18T10:39:26;100240.88;;;22.24;64.06
9009;BME280;62813;51.424;6.762;2023-09-18T10:42:00;100236.41;;;22.32;63.78
9009;BME280;62813;51.424;6.762;2023-09-18T10:44:29;100228.94;;;22.41;64.06
9009;BME280;62813;51.424;6.762;2023-09-18T10:46:58;100227.59;;;22.51;63.65
9009;BME280;62813;51.424;6.762;2023-09-18T10:49:28;100234.75;;;22.62;63.33
9009;BME280;62813;51.424;6.762;2023-09-18T10:51:56;100244.75;;;22.46;63.23
9009;BME280;62813;51.424;6.762;2023-09-18T10:54:24;100260.88;;;22.46;62.99
9009;BME280;62813;51.424;6.762;2023-09-18T10:56:52;100245.91;;;22.45;62.96
9009;BME280;62813;51.424;6.762;2023-09-18T10:59:20;100238.69;;;22.49;63.50
9009;BME280;62813;51.424;6.762;2023-09-18T11:01:49;100235.66;;;22.51;63.21
9009;BME280;62813;51.424;6.762;2023-09-18T11:04:20;100233.63;;;22.44;63.59
9009;BME280;62813;51.424;6.762;2023-09-18T11:09:23;100233.25;;;22.46;63.26
9009;BME280;62813;51.424;6.762;2023-09-18T11:12:03;100233.88;;;22.58;61.75
9009;BME280;62813;51.424;6.762;2023-09-18T11:14:55;100234.25;;;22.76;62.03
9009;BME280;62813;51.424;6.762;2023-09-18T11:17:40;100236.72;;;22.85;61.04
9009;BME280;62813;51.424;6.762;2023-09-18T11:20:08;100223.84;;;22.94;60.45
9009;BME280;62813;51.424;6.762;2023-09-18T11:22:36;100231.19;;;22.97;61.17
9009;BME280;62813;51.424;6.762;2023-09-18T11:28:02;100225.09;;;23.23;58.95
9009;BME280;62813;51.424;6.762;2023-09-18T11:30:29;100247.47;;;23.27;58.75
9009;BME280;62813;51.424;6.762;2023-09-18T11:32:56;100240.34;;;23.15;58.76
9009;BME280;62813;51.424;6.762;2023-09-18T11:35:24;100242.56;;;23.10;59.50
9009;BME280;62813;51.424;6.762;2023-09-18T11:38:06;100234.06;;;23.08;59.58
9009;BME280;62813;51.424;6.762;2023-09-18T11:40:36;100222.41;;;23.23;59.61
9009;BME280;62813;51.424;6.762;2023-09-18T11:45:43;100233.56;;;23.21;59.49
9009;BME280;62813;51.424;6.762;2023-09-18T11:48:10;100221.53;;;23.15;58.67
9009;BME280;62813;51.424;6.762;2023-09-18T11:50:41;100229.59;;;23.15;58.27
9009;BME280;62813;51.424;6.762;2023-09-18T11:53:08;100225.00;;;23.16;58.98
9009;BME280;62813;51.424;6.762;2023-09-18T11:55:37;100209.94;;;23.11;59.40
9009;BME280;62813;51.424;6.762;2023-09-18T11:58:05;100230.00;;;23.17;59.79
9009;BME280;62813;51.424;6.762;2023-09-18T12:00:32;100233.66;;;23.28;59.51
9009;BME280;62813;51.424;6.762;2023-09-18T12:03:13;100204.22;;;23.35;59.28
9009;BME280;62813;51.424;6.762;2023-09-18T12:05:44;100218.06;;;23.37;59.46
9009;BME280;62813;51.424;6.762;2023-09-18T12:08:11;100199.59;;;23.36;58.86
9009;BME280;62813;51.424;6.762;2023-09-18T12:10:38;100212.81;;;23.45;58.96
9009;BME280;62813;51.424;6.762;2023-09-18T12:13:06;100201.09;;;23.33;58.94
9009;BME280;62813;51.424;6.762;2023-09-18T12:15:36;100203.06;;;23.36;59.10
9009;BME280;62813;51.424;6.762;2023-09-18T12:18:07;100202.66;;;23.34;59.32
9009;BME280;62813;51.424;6.762;2023-09-18T12:20:35;100199.97;;;23.34;58.06
9009;BME280;62813;51.424;6.762;2023-09-18T12:23:07;100198.13;;;23.38;57.56
9009;BME280;62813;51.424;6.762;2023-09-18T12:25:34;100194.50;;;23.31;57.38
9009;BME280;62813;51.424;6.762;2023-09-18T12:28:01;100208.19;;;23.22;56.53
9009;BME280;62813;51.424;6.762;2023-09-18T12:30:29;100199.97;;;23.34;56.23
9009;BME280;62813;51.424;6.762;2023-09-18T12:32:59;100191.19;;;23.37;55.08
9009;BME280;62813;51.424;6.762;2023-09-18T12:35:26;100196.72;;;23.48;55.38
9009;BME280;62813;51.424;6.762;2023-09-18T12:37:58;100189.50;;;23.52;54.68
9009;BME280;62813;51.424;6.762;2023-09-18T12:40:29;100204.16;;;23.55;54.51
9009;BME280;62813;51.424;6.762;2023-09-18T12:42:57;100194.63;;;23.61;55.35
9009;BME280;62813;51.424;6.762;2023-09-18T12:45:25;100192.09;;;23.71;53.98
9009;BME280;62813;51.424;6.762;2023-09-18T12:47:54;100181.09;;;23.80;54.08
9009;BME280;62813;51.424;6.762;2023-09-18T12:50:22;100192.31;;;23.86;54.04
9009;BME280;62813;51.424;6.762;2023-09-18T12:52:49;100185.00;;;23.86;53.58
9009;BME280;62813;51.424;6.762;2023-09-18T12:55:23;100174.25;;;23.86;53.36
9009;BME280;62813;51.424;6.762;2023-09-18T12:57:54;100174.94;;;23.80;53.77
9009;BME280;62813;51.424;6.762;2023-09-18T13:00:22;100175.44;;;23.89;53.45
9009;BME280;62813;51.424;6.762;2023-09-18T13:02:50;100179.34;;;23.95;54.09
9009;BME280;62813;51.424;6.762;2023-09-18T13:05:23;100180.66;;;24.08;53.96
9009;BME280;62813;51.424;6.762;2023-09-18T13:07:54;100175.97;;;24.01;53.48
9009;BME280;62813;51.424;6.762;2023-09-18T13:10:21;100179.03;;;23.73;53.06
9009;BME280;62813;51.424;6.762;2023-09-18T13:12:52;100169.81;;;23.71;52.75
9009;BME280;62813;51.424;6.762;2023-09-18T13:15:29;100172.41;;;23.64;52.71
9009;BME280;62813;51.424;6.762;2023-09-18T13:17:58;100152.78;;;23.63;52.61
9009;BME280;62813;51.424;6.762;2023-09-18T13:20:29;100162.03;;;23.66;53.14
9009;BME280;62813;51.424;6.762;2023-09-18T13:22:58;100156.03;;;23.76;52.81
9009;BME280;62813;51.424;6.762;2023-09-18T13:25:35;100165.25;;;23.75;52.37
9009;BME280;62813;51.424;6.762;2023-09-18T13:28:07;100150.75;;;23.83;51.77
9009;BME280;62813;51.424;6.762;2023-09-18T13:30:36;100146.22;;;23.91;51.88